Terminal Aerodrome Forecast
Issued by NWS Billings, MT

Home | Current Version | Previous Version | Text Only | Print | Product List | Glossary On
Versions: 1 2 3 4 5 6 7 8 9 10 11 12 13 14 15 16 17 18 19 20 21 22 23 24 25 26 27 28
899
FTUS45 KBYZ 201739
TAFBIL
TAF
KBIL 201739Z 2018/2118 24013KT P6SM SCT100
     FM202000 23015G25KT P6SM SCT100
     FM210300 24015KT P6SM FEW080 BKN100
     FM211500 22015KT P6SM VCSH BKN050 OVC080=

USA.gov is the U.S. government's official web portal to all federal, state and local government web resources and services.